METAR (acronimo di METeorological Air Report) è un messaggio meteo emesso nella maggior parte dei casi in ambito aeroportuale

UEEE - Yakutsk, Russia
Ultimo Aggiornamento: Lunedì 03 Agosto 2020 18:30 CEST
Sereno
Sereno
 Wind from Ovest
Vento: Ovest 7 km/h
Temperatura: 12°C
Punto di Rugiada: 7°C
Umidità: 72%
Barometro: 1016 hPa
Condizioni: Sereno
Visibilità: superiore a 10 km
2020/08/03 16:30 UEEE 031630Z 27002MPS CAVOK 12/07 Q1016 R23L/09//60 NOSIG RMK QFE753
UHWW - Vladivostok, Russia
Ultimo Aggiornamento: Lunedì 03 Agosto 2020 18:30 CEST
Nuvoloso
Nuvoloso
 Wind from Est
Vento: Est 7 km/h
Temperatura: 21°C
Punto di Rugiada: 21°C
Umidità: 100%
Barometro: 1005 hPa
Nuvole: Nuvoloso
Visibilità: 10 km
Nuvole nel Dettaglio: Nuvoloso 122 m
2020/08/03 16:30 UHWW 031630Z 10002MPS 9999 OVC004 21/21 Q1005 R25L/0///70 BECMG 0300 FG VV002 RMK QBB120 MT OBSC QFE752
ZMUB - Ulan Bator, Mongolia
Ultimo Aggiornamento: Lunedì 03 Agosto 2020 19:00 CEST
Parzialmente Nuvoloso
Parzialmente Nuvoloso
 Wind from Ovest-Nord-Ovest
Vento: Ovest-Nord-Ovest 7 km/h
Temperatura: 12°C
Punto di Rugiada: 10°C
Umidità: 88%
Barometro: 1015 hPa
Nuvole: Parzialmente Nuvoloso
Visibilità: 10 km
Nuvole nel Dettaglio: Parzialmente Nuvoloso 3048 m
2020/08/03 17:00 ZMUB 031700Z 29002MPS 9999 SCT100 12/10 Q1015 NOSIG RMK QFE653.9 90 NT
 
UTTT - Tashkent, Uzbekistan
Ultimo Aggiornamento: Lunedì 03 Agosto 2020 18:30 CEST
Sereno
Sereno
 Wind from Sud
Vento: Sud 11 km/h
Temperatura: 29°C
Punto di Rugiada: 12°C
Umidità: 35%
Barometro: 1002 hPa
Condizioni: Sereno
Visibilità: superiore a 10 km
2020/08/03 16:30 UTTT 031630Z 19006KT CAVOK 29/12 Q1002 R08R/CLRD70 NOSIG
OAKB - Kabul, Afghanistan
Ultimo Aggiornamento: Lunedì 03 Agosto 2020 18:50 CEST
Sereno
Sereno
 Wind from Est-Nord-Est
Vento: Est-Nord-Est 6 km/h
Temperatura: 25°C
Punto di Rugiada: 11°C
Umidità: 42%
Barometro: 1007 hPa
Condizioni: Sereno
Visibilità: superiore a 10 km
2020/08/03 16:50 OAKB 031650Z 06003KT CAVOK 25/11 Q1007 RMK A2973 BLU BLU
OPIS - Islamabad, Pakistan
Ultimo Aggiornamento: Lunedì 03 Agosto 2020 18:55 CEST
Temporale, Parzialmente Nuvoloso
Temporale, Parzialmente Nuvoloso
 Wind from Sud-Est
Vento: Sud-Est 7 km/h
Temperatura: 28°C
Heat Index: 30°C
Punto di Rugiada: 22°C
Umidità: 70%
Barometro: 996 hPa
Condizioni: Temporale
Nuvole: Parzialmente Nuvoloso
Visibilità: 6 km
Nuvole nel Dettaglio: Qualche Nuvola 914 m
Parzialmente Nuvoloso 1219 m
Parzialmente Nuvoloso 3048 m
2020/08/03 16:55 OPIS 031655Z 13004KT 6000 TS FEW030CB SCT040 SCT100 28/22 Q0996 TEMPO 09015G35KT 3000 -TSRA FEW030CB
 
ZBAA - Pechino, Cina
Ultimo Aggiornamento: Lunedì 03 Agosto 2020 18:30 CEST
Sereno
Sereno
 Wind from Nord
Vento: Nord 7 km/h
Temperatura: 25°C
Punto di Rugiada: 20°C
Umidità: 74%
Barometro: 1001 hPa
Condizioni: Sereno
Visibilità: superiore a 10 km
2020/08/03 16:30 ZBAA 031630Z 35002MPS CAVOK 25/20 Q1001 NOSIG
VHHH - Pechino, Cina
Ultimo Aggiornamento: Lunedì 03 Agosto 2020 19:00 CEST
Qualche Nuvola
Qualche Nuvola
 Wind from Nord-Est
Vento: Nord-Est 7 km/h
Temperatura: 27°C
Heat Index: 31°C
Punto di Rugiada: 25°C
Umidità: 89%
Barometro: 1003 hPa
Nuvole: Qualche Nuvola
Visibilità: 10 km
Nuvole nel Dettaglio: Qualche Nuvola 366 m
2020/08/03 17:00 VHHH 031700Z 05004KT 9999 FEW012 27/25 Q1003 NOSIG
RKSI - Seul-Incheon, Corea del Sud
Ultimo Aggiornamento: Lunedì 03 Agosto 2020 18:30 CEST
Bruma, Nuvoloso
Bruma, Nuvoloso
 Wind from Sud-Sud-Ovest
Vento: Sud-Sud-Ovest 19 km/h
Temperatura: 26°C
Punto di Rugiada: 23°C
Umidità: 84%
Barometro: 1008 hPa
Condizioni: Bruma
Nuvole: Nuvoloso
Visibilità: 4 km
Nuvole nel Dettaglio: Prevalentemente Nuvoloso 213 m
Prevalentemente Nuvoloso 762 m
Nuvoloso 2438 m
2020/08/03 16:30 RKSI 031630Z 20010KT 3500 BR BKN007 BKN025 OVC080 26/23 Q1008 NOSIG
 
RJTT - Tokyo-Haneda, Japan
Ultimo Aggiornamento: Lunedì 03 Agosto 2020 18:30 CEST
Parzialmente Nuvoloso
Parzialmente Nuvoloso
 Wind from Sud
Vento: Sud 15 km/h
Temperatura: 26°C
Punto di Rugiada: 24°C
Umidità: 89%
Barometro: 1014 hPa
Nuvole: Parzialmente Nuvoloso
Visibilità: 10 km
Nuvole nel Dettaglio: Qualche Nuvola 305 m
Parzialmente Nuvoloso 457 m
2020/08/03 16:30 RJTT 031630Z 19008KT 9999 FEW010 SCT015 26/24 Q1014 NOSIG
OIII - Tehran, Iran
Ultimo Aggiornamento: Lunedì 03 Agosto 2020 19:00 CEST
Sereno
Sereno
 Wind from Ovest-Nord-Ovest
Vento: Ovest-Nord-Ovest 22 km/h
Temperatura: 31°C
Punto di Rugiada: 10°C
Umidità: 27%
Barometro: 1007 hPa
Condizioni: Sereno
Visibilità: superiore a 10 km
2020/08/03 17:00 OIII 031700Z 29012KT CAVOK 31/10 Q1007 A2974
ORBI - Baghdad, Iraq
Ultimo Aggiornamento: Lunedì 03 Agosto 2020 19:00 CEST
Sereno
Sereno
 Wind from Ovest
Vento: Ovest 11 km/h
Temperatura: 39°C
Punto di Rugiada: 10°C
Umidità: 17%
Barometro: 997 hPa
Condizioni: Sereno
Visibilità: superiore a 10 km
2020/08/03 17:00 ORBI 031700Z 27006KT CAVOK 39/10 Q0997 NOSIG
 
OKBK - Kuwait City, Kuwait
Ultimo Aggiornamento: Lunedì 03 Agosto 2020 19:00 CEST
Sereno
Sereno
 Wind from Est-Nord-Est
Vento: Est-Nord-Est 11 km/h
Temperatura: 42°C
Punto di Rugiada: 11°C
Umidità: 16%
Barometro: 995 hPa
Condizioni: Sereno
Visibilità: superiore a 10 km
2020/08/03 17:00 OKBK 031700Z 06006KT CAVOK 42/11 Q0995 NOSIG
OMDB - Dubai, United Arab Emirates
Ultimo Aggiornamento: Lunedì 03 Agosto 2020 19:00 CEST
Sereno
Sereno
 Wind from Nord-Nord-Ovest
Vento: Nord-Nord-Ovest 13 km/h
Temperatura: 36°C
Heat Index: 46°C
Punto di Rugiada: 26°C
Umidità: 56%
Barometro: 994 hPa
Condizioni: Sereno
Visibilità: superiore a 10 km
2020/08/03 17:00 OMDB 031700Z 34007KT CAVOK 36/26 Q0994 NOSIG
VIDP - New Delhi, India
Ultimo Aggiornamento: Lunedì 03 Agosto 2020 05:00 CEST
Dati non Recenti
Bruma, Prevalentemente Nuvoloso
Bruma, Prevalentemente Nuvoloso
 Wind from Ovest-Sud-Ovest
Vento: Ovest-Sud-Ovest 13 km/h
Temperatura: 30°C
Heat Index: 37°C
Punto di Rugiada: 26°C
Umidità: 79%
Barometro: 998 hPa
Condizioni: Bruma
Nuvole: Prevalentemente Nuvoloso
Visibilità: 4 km
Nuvole nel Dettaglio: Parzialmente Nuvoloso 914 m
Qualche Nuvola 1219 m
Prevalentemente Nuvoloso 3048 m
2020/08/03 03:00 VIDP 030300Z 24007KT 4000 BR SCT030 FEW040CB BKN100 30/26 Q0998 NOSIG
 
VVNB - Hanoi, Vietnam
Ultimo Aggiornamento: Lunedì 03 Agosto 2020 18:30 CEST
Prevalentemente Nuvoloso
Prevalentemente Nuvoloso
 Wind from Est-Nord-Est
Vento: Est-Nord-Est 11 km/h
Temperatura: 27°C
Heat Index: 31°C
Punto di Rugiada: 24°C
Umidità: 84%
Barometro: 1002 hPa
Nuvole: Prevalentemente Nuvoloso
Visibilità: 10 km
Nuvole nel Dettaglio: Parzialmente Nuvoloso 579 m
Prevalentemente Nuvoloso 762 m
2020/08/03 16:30 VVNB 031630Z 06006KT 9999 SCT019 BKN025 27/24 Q1002 NOSIG
VVTS - Ho Chi Minh City, Vietnam
Ultimo Aggiornamento: Lunedì 03 Agosto 2020 18:30 CEST
Prevalentemente Nuvoloso
Prevalentemente Nuvoloso
 Wind from Sud-Ovest
Vento: Sud-Ovest 7 km/h
Temperatura: 26°C
Punto di Rugiada: 26°C
Umidità: 100%
Barometro: 1006 hPa
Nuvole: Prevalentemente Nuvoloso
Visibilità: 10 km
Nuvole nel Dettaglio: Parzialmente Nuvoloso 457 m
Prevalentemente Nuvoloso 1524 m
2020/08/03 16:30 VVTS 031630Z 22004KT 9999 SCT015 BKN050 26/26 Q1006 NOSIG
RPLL - Manila, Philippines
Ultimo Aggiornamento: Lunedì 03 Agosto 2020 18:00 CEST
Qualche Nuvola
Qualche Nuvola
 Wind from varies
Vento: variabile 4 km/h
Temperatura: 28°C
Heat Index: 32°C
Punto di Rugiada: 25°C
Umidità: 84%
Barometro: 1008 hPa
Nuvole: Qualche Nuvola
Visibilità: 10 km
Nuvole nel Dettaglio: Qualche Nuvola 6706 m
2020/08/03 16:00 RPLL 031600Z AUTO VRB02KT 9999 FEW220/// 28/25 Q1008
 
WMKK - Kuala Lumpur, Malaysia
Ultimo Aggiornamento: Lunedì 03 Agosto 2020 18:30 CEST
Qualche Nuvola
Qualche Nuvola
 Wind from varies
Vento: variabile 4 km/h
Temperatura: 28°C
Heat Index: 32°C
Punto di Rugiada: 25°C
Umidità: 84%
Barometro: 1008 hPa
Nuvole: Qualche Nuvola
Visibilità: 10 km
Nuvole nel Dettaglio: Qualche Nuvola 518 m
2020/08/03 16:30 WMKK 031630Z VRB02KT 9999 FEW017CB 28/25 Q1008 NOSIG
WSSS - Singapore, Singapore
Ultimo Aggiornamento: Lunedì 03 Agosto 2020 19:00 CEST
Prevalentemente Nuvoloso
Prevalentemente Nuvoloso
 Wind from Sud-Sud-Est
Vento: Sud-Sud-Est 13 km/h
Temperatura: 29°C
Heat Index: 34°C
Punto di Rugiada: 25°C
Umidità: 79%
Barometro: 1008 hPa
Nuvole: Prevalentemente Nuvoloso
Visibilità: 10 km
Nuvole nel Dettaglio: Qualche Nuvola 488 m
Prevalentemente Nuvoloso 4572 m
2020/08/03 17:00 WSSS 031700Z 15007KT 9999 FEW016 BKN150 29/25 Q1008 NOSIG
WBSB - Brunei, Brunei
Ultimo Aggiornamento: Lunedì 03 Agosto 2020 18:30 CEST
Prevalentemente Nuvoloso
Prevalentemente Nuvoloso
 Wind from Sud-Sud-Est
Vento: Sud-Sud-Est 4 km/h
Temperatura: 28°C
Heat Index: 32°C
Punto di Rugiada: 25°C
Umidità: 84%
Barometro: 1009 hPa
Nuvole: Prevalentemente Nuvoloso
Visibilità: 10 km
Nuvole nel Dettaglio: Qualche Nuvola 457 m
Prevalentemente Nuvoloso 4267 m
2020/08/03 16:30 WBSB 031630Z 16002KT 9999 FEW015 BKN140 28/25 Q1009 NOSIG